sensor_id;sensor_type;location;lat;lon;timestamp;temperature;humidity
30628;DHT22;17394;50.890;4.724;2023-11-19T00:01:56;13.20;99.90
30628;DHT22;17394;50.890;4.724;2023-11-19T00:04:25;13.30;99.90
30628;DHT22;17394;50.890;4.724;2023-11-19T00:06:52;13.30;99.90
30628;DHT22;17394;50.890;4.724;2023-11-19T00:09:20;13.30;99.90
30628;DHT22;17394;50.890;4.724;2023-11-19T00:11:46;13.30;99.90
30628;DHT22;17394;50.890;4.724;2023-11-19T00:14:19;13.30;99.90
30628;DHT22;17394;50.890;4.724;2023-11-19T00:16:45;13.40;99.90
30628;DHT22;17394;50.890;4.724;2023-11-19T00:19:12;13.40;99.90
30628;DHT22;17394;50.890;4.724;2023-11-19T00:21:38;13.40;99.90
30628;DHT22;17394;50.890;4.724;2023-11-19T00:24:07;13.40;99.90
30628;DHT22;17394;50.890;4.724;2023-11-19T00:26:34;13.40;99.90
30628;DHT22;17394;50.890;4.724;2023-11-19T00:29:00;13.40;99.90
30628;DHT22;17394;50.890;4.724;2023-11-19T00:31:27;13.40;99.90
30628;DHT22;17394;50.890;4.724;2023-11-19T00:33:54;13.40;99.90
30628;DHT22;17394;50.890;4.724;2023-11-19T00:36:20;13.40;99.90
30628;DHT22;17394;50.890;4.724;2023-11-19T00:38:47;13.40;99.90
30628;DHT22;17394;50.890;4.724;2023-11-19T00:41:15;13.40;99.90
30628;DHT22;17394;50.890;4.724;2023-11-19T00:43:43;13.40;99.90
30628;DHT22;17394;50.890;4.724;2023-11-19T00:46:10;13.40;99.90
30628;DHT22;17394;50.890;4.724;2023-11-19T00:48:37;13.40;99.90
30628;DHT22;17394;50.890;4.724;2023-11-19T00:51:04;13.40;99.90
30628;DHT22;17394;50.890;4.724;2023-11-19T00:53:31;13.50;99.90
30628;DHT22;17394;50.890;4.724;2023-11-19T00:56:04;13.40;99.90
30628;DHT22;17394;50.890;4.724;2023-11-19T01:04:10;13.50;99.90
30628;DHT22;17394;50.890;4.724;2023-11-19T01:06:37;13.40;99.90
30628;DHT22;17394;50.890;4.724;2023-11-19T01:09:03;13.40;99.90
30628;DHT22;17394;50.890;4.724;2023-11-19T01:11:30;13.40;99.90
30628;DHT22;17394;50.890;4.724;2023-11-19T01:13:56;13.40;99.90
30628;DHT22;17394;50.890;4.724;2023-11-19T01:16:23;13.40;99.90
30628;DHT22;17394;50.890;4.724;2023-11-19T01:18:55;13.40;99.90
30628;DHT22;17394;50.890;4.724;2023-11-19T01:21:22;13.40;99.90
30628;DHT22;17394;50.890;4.724;2023-11-19T01:23:48;13.40;99.90
30628;DHT22;17394;50.890;4.724;2023-11-19T01:26:17;13.40;99.90
30628;DHT22;17394;50.890;4.724;2023-11-19T01:28:43;13.40;99.90
30628;DHT22;17394;50.890;4.724;2023-11-19T01:31:15;13.40;99.90
30628;DHT22;17394;50.890;4.724;2023-11-19T01:33:42;13.40;99.90
30628;DHT22;17394;50.890;4.724;2023-11-19T01:36:09;13.40;99.90
30628;DHT22;17394;50.890;4.724;2023-11-19T01:38:36;13.40;99.90
30628;DHT22;17394;50.890;4.724;2023-11-19T01:41:02;13.40;99.90
30628;DHT22;17394;50.890;4.724;2023-11-19T01:43:38;13.40;99.90
30628;DHT22;17394;50.890;4.724;2023-11-19T01:46:07;13.40;99.90
30628;DHT22;17394;50.890;4.724;2023-11-19T01:48:38;13.30;99.90
30628;DHT22;17394;50.890;4.724;2023-11-19T01:51:09;13.30;99.90
30628;DHT22;17394;50.890;4.724;2023-11-19T01:53:37;13.30;99.90
30628;DHT22;17394;50.890;4.724;2023-11-19T01:56:05;13.30;99.90
30628;DHT22;17394;50.890;4.724;2023-11-19T01:58:36;13.30;99.90
30628;DHT22;17394;50.890;4.724;2023-11-19T02:01:09;13.30;99.90
30628;DHT22;17394;50.890;4.724;2023-11-19T02:03:35;13.30;99.90
30628;DHT22;17394;50.890;4.724;2023-11-19T02:06:02;13.30;99.90
30628;DHT22;17394;50.890;4.724;2023-11-19T02:08:29;13.40;99.90
30628;DHT22;17394;50.890;4.724;2023-11-19T02:11:02;13.30;99.90
30628;DHT22;17394;50.890;4.724;2023-11-19T02:13:28;13.30;99.90
30628;DHT22;17394;50.890;4.724;2023-11-19T02:15:55;13.30;99.90
30628;DHT22;17394;50.890;4.724;2023-11-19T02:18:24;13.30;99.90
30628;DHT22;17394;50.890;4.724;2023-11-19T02:20:54;13.20;99.90
30628;DHT22;17394;50.890;4.724;2023-11-19T02:23:21;13.20;99.90
30628;DHT22;17394;50.890;4.724;2023-11-19T02:28:36;13.10;99.90
30628;DHT22;17394;50.890;4.724;2023-11-19T02:31:03;13.00;99.90
30628;DHT22;17394;50.890;4.724;2023-11-19T02:33:36;13.00;99.90
30628;DHT22;17394;50.890;4.724;2023-11-19T02:36:05;12.90;99.90
30628;DHT22;17394;50.890;4.724;2023-11-19T02:38:33;12.90;99.90
30628;DHT22;17394;50.890;4.724;2023-11-19T02:41:02;12.80;99.90
30628;DHT22;17394;50.890;4.724;2023-11-19T02:43:34;12.80;99.90
30628;DHT22;17394;50.890;4.724;2023-11-19T02:46:04;12.80;99.90
30628;DHT22;17394;50.890;4.724;2023-11-19T02:48:33;12.80;99.90
30628;DHT22;17394;50.890;4.724;2023-11-19T02:51:02;12.80;99.90
30628;DHT22;17394;50.890;4.724;2023-11-19T02:53:32;12.80;99.90
30628;DHT22;17394;50.890;4.724;2023-11-19T02:56:02;12.80;99.90
30628;DHT22;17394;50.890;4.724;2023-11-19T02:58:38;12.70;99.90
30628;DHT22;17394;50.890;4.724;2023-11-19T03:01:08;12.70;99.90
30628;DHT22;17394;50.890;4.724;2023-11-19T03:03:51;12.70;99.90
30628;DHT22;17394;50.890;4.724;2023-11-19T03:06:22;12.70;99.90
30628;DHT22;17394;50.890;4.724;2023-11-19T03:08:49;12.60;99.90
30628;DHT22;17394;50.890;4.724;2023-11-19T03:11:16;12.70;99.90
30628;DHT22;17394;50.890;4.724;2023-11-19T03:13:43;12.70;99.90
30628;DHT22;17394;50.890;4.724;2023-11-19T03:16:09;12.70;99.90
30628;DHT22;17394;50.890;4.724;2023-11-19T03:18:37;12.70;99.90
30628;DHT22;17394;50.890;4.724;2023-11-19T03:21:06;12.70;99.90
30628;DHT22;17394;50.890;4.724;2023-11-19T03:23:37;12.70;99.90
30628;DHT22;17394;50.890;4.724;2023-11-19T03:29:25;12.70;99.90
30628;DHT22;17394;50.890;4.724;2023-11-19T03:31:52;12.60;99.90
30628;DHT22;17394;50.890;4.724;2023-11-19T03:34:18;12.60;99.90
30628;DHT22;17394;50.890;4.724;2023-11-19T03:36:45;12.60;99.90
30628;DHT22;17394;50.890;4.724;2023-11-19T03:39:11;12.60;99.90
30628;DHT22;17394;50.890;4.724;2023-11-19T03:41:37;12.60;99.90
30628;DHT22;17394;50.890;4.724;2023-11-19T03:44:04;12.60;99.90
30628;DHT22;17394;50.890;4.724;2023-11-19T03:46:31;12.50;99.90
30628;DHT22;17394;50.890;4.724;2023-11-19T03:48:57;12.50;99.90
30628;DHT22;17394;50.890;4.724;2023-11-19T03:51:23;12.50;99.90
30628;DHT22;17394;50.890;4.724;2023-11-19T03:53:51;12.40;99.90
30628;DHT22;17394;50.890;4.724;2023-11-19T03:56:17;12.40;99.90
30628;DHT22;17394;50.890;4.724;2023-11-19T03:58:43;12.40;99.90
30628;DHT22;17394;50.890;4.724;2023-11-19T04:01:15;12.40;99.90
30628;DHT22;17394;50.890;4.724;2023-11-19T04:03:41;12.30;99.90
30628;DHT22;17394;50.890;4.724;2023-11-19T04:06:07;12.30;99.90
30628;DHT22;17394;50.890;4.724;2023-11-19T04:08:34;12.30;99.90
30628;DHT22;17394;50.890;4.724;2023-11-19T04:11:03;12.30;99.90
30628;DHT22;17394;50.890;4.724;2023-11-19T04:13:29;12.20;99.90
30628;DHT22;17394;50.890;4.724;2023-11-19T04:15:56;12.10;99.90
30628;DHT22;17394;50.890;4.724;2023-11-19T04:18:23;12.20;99.90
30628;DHT22;17394;50.890;4.724;2023-11-19T04:20:49;12.10;99.90
30628;DHT22;17394;50.890;4.724;2023-11-19T04:23:17;12.10;99.90
30628;DHT22;17394;50.890;4.724;2023-11-19T04:25:43;12.10;99.90
30628;DHT22;17394;50.890;4.724;2023-11-19T04:28:09;12.10;99.90
30628;DHT22;17394;50.890;4.724;2023-11-19T04:30:38;12.20;99.90
30628;DHT22;17394;50.890;4.724;2023-11-19T04:33:04;12.20;99.90
30628;DHT22;17394;50.890;4.724;2023-11-19T04:35:31;12.20;99.90
30628;DHT22;17394;50.890;4.724;2023-11-19T04:37:57;12.20;99.90
30628;DHT22;17394;50.890;4.724;2023-11-19T04:40:23;12.20;99.90
30628;DHT22;17394;50.890;4.724;2023-11-19T04:42:50;12.20;99.90
30628;DHT22;17394;50.890;4.724;2023-11-19T04:45:16;12.20;99.90
30628;DHT22;17394;50.890;4.724;2023-11-19T04:47:43;12.20;99.90
30628;DHT22;17394;50.890;4.724;2023-11-19T04:50:11;12.20;99.90
30628;DHT22;17394;50.890;4.724;2023-11-19T04:52:38;12.20;99.90
30628;DHT22;17394;50.890;4.724;2023-11-19T04:55:13;12.20;99.90
30628;DHT22;17394;50.890;4.724;2023-11-19T04:57:40;12.20;99.90
30628;DHT22;17394;50.890;4.724;2023-11-19T05:00:07;12.20;99.90
30628;DHT22;17394;50.890;4.724;2023-11-19T05:02:34;12.10;99.90
30628;DHT22;17394;50.890;4.724;2023-11-19T05:05:01;12.10;99.90
30628;DHT22;17394;50.890;4.724;2023-11-19T05:07:29;12.00;99.90
30628;DHT22;17394;50.890;4.724;2023-11-19T05:09:57;12.00;99.90
30628;DHT22;17394;50.890;4.724;2023-11-19T05:12:25;12.00;99.90
30628;DHT22;17394;50.890;4.724;2023-11-19T05:14:52;12.00;99.90
30628;DHT22;17394;50.890;4.724;2023-11-19T05:17:18;12.00;99.90
30628;DHT22;17394;50.890;4.724;2023-11-19T05:19:45;11.90;99.90
30628;DHT22;17394;50.890;4.724;2023-11-19T05:22:11;11.90;99.90
30628;DHT22;17394;50.890;4.724;2023-11-19T05:24:41;12.20;99.90
30628;DHT22;17394;50.890;4.724;2023-11-19T05:27:07;12.00;99.90
30628;DHT22;17394;50.890;4.724;2023-11-19T05:29:33;11.90;99.90
30628;DHT22;17394;50.890;4.724;2023-11-19T05:32:00;11.90;99.90
30628;DHT22;17394;50.890;4.724;2023-11-19T05:34:30;11.90;99.90
30628;DHT22;17394;50.890;4.724;2023-11-19T05:36:56;11.90;99.90
30628;DHT22;17394;50.890;4.724;2023-11-19T05:39:23;11.80;99.90
30628;DHT22;17394;50.890;4.724;2023-11-19T05:41:50;11.80;99.90
30628;DHT22;17394;50.890;4.724;2023-11-19T05:44:17;11.80;99.90
30628;DHT22;17394;50.890;4.724;2023-11-19T05:46:45;11.70;99.90
30628;DHT22;17394;50.890;4.724;2023-11-19T05:49:12;11.70;99.90
30628;DHT22;17394;50.890;4.724;2023-11-19T05:51:39;11.70;99.90
30628;DHT22;17394;50.890;4.724;2023-11-19T05:54:09;11.70;99.90
30628;DHT22;17394;50.890;4.724;2023-11-19T05:56:36;11.70;99.90
30628;DHT22;17394;50.890;4.724;2023-11-19T05:59:03;11.70;99.90
30628;DHT22;17394;50.890;4.724;2023-11-19T06:01:35;11.70;99.90
30628;DHT22;17394;50.890;4.724;2023-11-19T06:04:02;11.70;99.90
30628;DHT22;17394;50.890;4.724;2023-11-19T06:06:29;11.60;99.90
30628;DHT22;17394;50.890;4.724;2023-11-19T06:08:55;11.60;99.90
30628;DHT22;17394;50.890;4.724;2023-11-19T06:11:22;11.60;99.90
30628;DHT22;17394;50.890;4.724;2023-11-19T06:13:49;11.50;99.90
30628;DHT22;17394;50.890;4.724;2023-11-19T06:16:16;11.50;99.90
30628;DHT22;17394;50.890;4.724;2023-11-19T06:18:42;11.60;99.90
30628;DHT22;17394;50.890;4.724;2023-11-19T06:21:10;11.60;99.90
30628;DHT22;17394;50.890;4.724;2023-11-19T06:23:36;11.50;99.90
30628;DHT22;17394;50.890;4.724;2023-11-19T06:26:03;11.50;99.90
30628;DHT22;17394;50.890;4.724;2023-11-19T06:28:31;11.50;99.90
30628;DHT22;17394;50.890;4.724;2023-11-19T06:30:57;11.50;99.90
30628;DHT22;17394;50.890;4.724;2023-11-19T06:33:27;11.50;99.90
30628;DHT22;17394;50.890;4.724;2023-11-19T06:35:54;11.50;99.90
30628;DHT22;17394;50.890;4.724;2023-11-19T06:38:21;11.50;99.90
30628;DHT22;17394;50.890;4.724;2023-11-19T06:40:47;11.40;99.90
30628;DHT22;17394;50.890;4.724;2023-11-19T06:43:14;11.40;99.90
30628;DHT22;17394;50.890;4.724;2023-11-19T06:45:41;11.30;99.90
30628;DHT22;17394;50.890;4.724;2023-11-19T06:48:08;11.30;99.90
30628;DHT22;17394;50.890;4.724;2023-11-19T06:50:34;11.40;99.90
30628;DHT22;17394;50.890;4.724;2023-11-19T06:53:00;11.30;99.90
30628;DHT22;17394;50.890;4.724;2023-11-19T06:55:27;11.30;99.90
30628;DHT22;17394;50.890;4.724;2023-11-19T06:57:54;11.30;99.90
30628;DHT22;17394;50.890;4.724;2023-11-19T07:00:20;11.30;99.90
30628;DHT22;17394;50.890;4.724;2023-11-19T07:02:48;11.20;99.90
30628;DHT22;17394;50.890;4.724;2023-11-19T07:05:15;11.30;99.90
30628;DHT22;17394;50.890;4.724;2023-11-19T07:07:41;11.20;99.90
30628;DHT22;17394;50.890;4.724;2023-11-19T07:10:08;11.20;99.90
30628;DHT22;17394;50.890;4.724;2023-11-19T07:12:35;11.20;99.90
30628;DHT22;17394;50.890;4.724;2023-11-19T07:15:02;11.20;99.90
30628;DHT22;17394;50.890;4.724;2023-11-19T07:17:30;11.20;99.90
30628;DHT22;17394;50.890;4.724;2023-11-19T07:19:56;11.20;99.90
30628;DHT22;17394;50.890;4.724;2023-11-19T07:22:26;11.20;99.90
30628;DHT22;17394;50.890;4.724;2023-11-19T07:24:52;11.20;99.90
30628;DHT22;17394;50.890;4.724;2023-11-19T07:27:24;11.20;99.90
30628;DHT22;17394;50.890;4.724;2023-11-19T07:29:51;11.20;99.90
30628;DHT22;17394;50.890;4.724;2023-11-19T07:32:17;11.20;99.90
30628;DHT22;17394;50.890;4.724;2023-11-19T07:34:44;11.20;99.90
30628;DHT22;17394;50.890;4.724;2023-11-19T07:37:10;11.20;99.90
30628;DHT22;17394;50.890;4.724;2023-11-19T07:39:37;11.20;99.90
30628;DHT22;17394;50.890;4.724;2023-11-19T07:42:06;11.20;99.90
30628;DHT22;17394;50.890;4.724;2023-11-19T07:44:33;11.20;99.90
30628;DHT22;17394;50.890;4.724;2023-11-19T07:46:59;11.20;99.90
30628;DHT22;17394;50.890;4.724;2023-11-19T07:49:27;11.20;99.90
30628;DHT22;17394;50.890;4.724;2023-11-19T07:51:53;11.20;99.90
30628;DHT22;17394;50.890;4.724;2023-11-19T07:54:19;11.20;99.90
30628;DHT22;17394;50.890;4.724;2023-11-19T07:56:47;11.20;99.90
30628;DHT22;17394;50.890;4.724;2023-11-19T07:59:15;11.30;99.90
30628;DHT22;17394;50.890;4.724;2023-11-19T08:01:41;11.30;99.90
30628;DHT22;17394;50.890;4.724;2023-11-19T08:04:09;11.30;99.90
30628;DHT22;17394;50.890;4.724;2023-11-19T08:06:36;11.30;99.90
30628;DHT22;17394;50.890;4.724;2023-11-19T08:09:02;11.30;99.90
30628;DHT22;17394;50.890;4.724;2023-11-19T08:11:28;11.30;99.90
30628;DHT22;17394;50.890;4.724;2023-11-19T08:13:55;11.40;99.90
30628;DHT22;17394;50.890;4.724;2023-11-19T08:16:22;11.40;99.90
30628;DHT22;17394;50.890;4.724;2023-11-19T08:18:49;11.40;99.90
30628;DHT22;17394;50.890;4.724;2023-11-19T08:21:17;11.40;99.90
30628;DHT22;17394;50.890;4.724;2023-11-19T08:23:44;11.50;99.90
30628;DHT22;17394;50.890;4.724;2023-11-19T08:26:10;11.50;99.90
30628;DHT22;17394;50.890;4.724;2023-11-19T08:28:38;11.50;99.90
30628;DHT22;17394;50.890;4.724;2023-11-19T08:31:04;11.60;99.90
30628;DHT22;17394;50.890;4.724;2023-11-19T08:33:31;11.60;99.90
30628;DHT22;17394;50.890;4.724;2023-11-19T08:35:57;11.70;99.90
30628;DHT22;17394;50.890;4.724;2023-11-19T08:38:24;11.70;99.90
30628;DHT22;17394;50.890;4.724;2023-11-19T08:40:55;11.70;99.90
30628;DHT22;17394;50.890;4.724;2023-11-19T08:43:28;11.70;99.90
30628;DHT22;17394;50.890;4.724;2023-11-19T08:45:54;11.80;99.90
30628;DHT22;17394;50.890;4.724;2023-11-19T08:48:23;11.80;99.90
30628;DHT22;17394;50.890;4.724;2023-11-19T08:50:49;11.90;99.90
30628;DHT22;17394;50.890;4.724;2023-11-19T08:53:20;11.90;99.90
30628;DHT22;17394;50.890;4.724;2023-11-19T08:55:47;11.90;99.90
30628;DHT22;17394;50.890;4.724;2023-11-19T08:58:13;11.90;99.90
30628;DHT22;17394;50.890;4.724;2023-11-19T09:00:40;12.00;99.90
30628;DHT22;17394;50.890;4.724;2023-11-19T09:03:06;12.00;99.90
30628;DHT22;17394;50.890;4.724;2023-11-19T09:05:33;12.00;99.90
30628;DHT22;17394;50.890;4.724;2023-11-19T09:08:00;12.10;99.90
30628;DHT22;17394;50.890;4.724;2023-11-19T09:10:26;12.10;99.90
30628;DHT22;17394;50.890;4.724;2023-11-19T09:12:53;12.10;99.90
30628;DHT22;17394;50.890;4.724;2023-11-19T09:15:20;12.10;99.90
30628;DHT22;17394;50.890;4.724;2023-11-19T09:17:47;12.10;99.90
30628;DHT22;17394;50.890;4.724;2023-11-19T09:20:14;12.10;99.90
30628;DHT22;17394;50.890;4.724;2023-11-19T09:22:45;12.00;99.90
30628;DHT22;17394;50.890;4.724;2023-11-19T09:25:12;12.00;99.90
30628;DHT22;17394;50.890;4.724;2023-11-19T09:27:46;12.00;99.90
30628;DHT22;17394;50.890;4.724;2023-11-19T09:30:14;12.00;99.90
30628;DHT22;17394;50.890;4.724;2023-11-19T09:32:41;12.00;99.90
30628;DHT22;17394;50.890;4.724;2023-11-19T09:35:07;12.00;99.90
30628;DHT22;17394;50.890;4.724;2023-11-19T09:37:40;12.00;99.90
30628;DHT22;17394;50.890;4.724;2023-11-19T09:40:07;12.00;99.90
30628;DHT22;17394;50.890;4.724;2023-11-19T09:42:43;12.10;99.90
30628;DHT22;17394;50.890;4.724;2023-11-19T09:45:15;12.10;99.90
30628;DHT22;17394;50.890;4.724;2023-11-19T09:47:45;12.20;99.90
30628;DHT22;17394;50.890;4.724;2023-11-19T09:50:18;12.30;99.90
30628;DHT22;17394;50.890;4.724;2023-11-19T09:52:45;12.30;99.90
30628;DHT22;17394;50.890;4.724;2023-11-19T09:55:12;12.40;99.90
30628;DHT22;17394;50.890;4.724;2023-11-19T09:57:57;12.50;99.90
30628;DHT22;17394;50.890;4.724;2023-11-19T10:00:27;12.60;99.90
30628;DHT22;17394;50.890;4.724;2023-11-19T10:02:57;12.60;99.90
30628;DHT22;17394;50.890;4.724;2023-11-19T10:05:24;12.70;99.90
30628;DHT22;17394;50.890;4.724;2023-11-19T10:07:50;12.80;99.90
30628;DHT22;17394;50.890;4.724;2023-11-19T10:10:17;12.80;99.90
30628;DHT22;17394;50.890;4.724;2023-11-19T10:12:47;12.90;99.90
30628;DHT22;17394;50.890;4.724;2023-11-19T10:15:24;13.00;99.90
30628;DHT22;17394;50.890;4.724;2023-11-19T10:17:57;13.10;99.90
30628;DHT22;17394;50.890;4.724;2023-11-19T10:20:23;13.10;99.90
30628;DHT22;17394;50.890;4.724;2023-11-19T10:22:55;13.10;99.90
30628;DHT22;17394;50.890;4.724;2023-11-19T10:25:26;13.20;99.90
30628;DHT22;17394;50.890;4.724;2023-11-19T10:27:54;13.10;99.90
30628;DHT22;17394;50.890;4.724;2023-11-19T10:30:25;13.10;99.90
30628;DHT22;17394;50.890;4.724;2023-11-19T10:33:11;13.20;99.90
30628;DHT22;17394;50.890;4.724;2023-11-19T10:35:53;13.20;99.90
30628;DHT22;17394;50.890;4.724;2023-11-19T10:38:20;13.30;99.90
30628;DHT22;17394;50.890;4.724;2023-11-19T10:40:50;13.30;99.90
30628;DHT22;17394;50.890;4.724;2023-11-19T10:43:17;13.30;99.90
30628;DHT22;17394;50.890;4.724;2023-11-19T10:45:43;13.30;99.90
30628;DHT22;17394;50.890;4.724;2023-11-19T10:48:10;13.30;99.90
30628;DHT22;17394;50.890;4.724;2023-11-19T10:50:39;13.50;99.90
30628;DHT22;17394;50.890;4.724;2023-11-19T10:53:07;13.50;99.90
30628;DHT22;17394;50.890;4.724;2023-11-19T10:55:35;13.40;99.90
30628;DHT22;17394;50.890;4.724;2023-11-19T11:00:59;13.40;99.90
30628;DHT22;17394;50.890;4.724;2023-11-19T11:03:39;13.40;99.90
30628;DHT22;17394;50.890;4.724;2023-11-19T11:06:12;13.30;99.90
30628;DHT22;17394;50.890;4.724;2023-11-19T11:08:39;13.20;99.90
30628;DHT22;17394;50.890;4.724;2023-11-19T11:11:10;13.20;99.90
30628;DHT22;17394;50.890;4.724;2023-11-19T11:13:44;13.20;99.90
30628;DHT22;17394;50.890;4.724;2023-11-19T11:16:12;13.20;99.90
30628;DHT22;17394;50.890;4.724;2023-11-19T11:18:39;13.10;99.90
30628;DHT22;17394;50.890;4.724;2023-11-19T11:21:11;13.10;99.90
30628;DHT22;17394;50.890;4.724;2023-11-19T11:24:01;13.10;99.90
30628;DHT22;17394;50.890;4.724;2023-11-19T11:32:09;13.30;99.90
30628;DHT22;17394;50.890;4.724;2023-11-19T11:34:59;13.40;99.90
30628;DHT22;17394;50.890;4.724;2023-11-19T11:37:37;13.30;99.90
30628;DHT22;17394;50.890;4.724;2023-11-19T11:40:14;13.40;99.90
30628;DHT22;17394;50.890;4.724;2023-11-19T11:42:42;13.40;99.90
30628;DHT22;17394;50.890;4.724;2023-11-19T11:45:10;13.40;99.90
30628;DHT22;17394;50.890;4.724;2023-11-19T11:50:30;13.30;99.90
30628;DHT22;17394;50.890;4.724;2023-11-19T11:57:55;13.40;99.90
30628;DHT22;17394;50.890;4.724;2023-11-19T12:24:03;13.70;99.90
30628;DHT22;17394;50.890;4.724;2023-11-19T12:26:48;13.90;99.90
30628;DHT22;17394;50.890;4.724;2023-11-19T12:29:59;14.00;99.90
30628;DHT22;17394;50.890;4.724;2023-11-19T12:32:45;14.10;99.90
30628;DHT22;17394;50.890;4.724;2023-11-19T12:35:20;14.10;99.90
30628;DHT22;17394;50.890;4.724;2023-11-19T12:41:51;13.80;99.90
30628;DHT22;17394;50.890;4.724;2023-11-19T12:44:28;13.80;99.90
30628;DHT22;17394;50.890;4.724;2023-11-19T12:47:16;13.70;99.90
30628;DHT22;17394;50.890;4.724;2023-11-19T12:50:05;13.60;99.90
30628;DHT22;17394;50.890;4.724;2023-11-19T12:52:41;13.60;99.90
30628;DHT22;17394;50.890;4.724;2023-11-19T12:55:34;13.60;99.90
30628;DHT22;17394;50.890;4.724;2023-11-19T12:58:09;13.50;99.90
30628;DHT22;17394;50.890;4.724;2023-11-19T13:01:08;13.40;99.90
30628;DHT22;17394;50.890;4.724;2023-11-19T13:03:51;13.40;99.90
30628;DHT22;17394;50.890;4.724;2023-11-19T13:06:32;13.30;99.90
30628;DHT22;17394;50.890;4.724;2023-11-19T13:12:13;13.20;99.90
30628;DHT22;17394;50.890;4.724;2023-11-19T13:14:53;13.20;99.90
30628;DHT22;17394;50.890;4.724;2023-11-19T13:17:28;13.20;99.90
30628;DHT22;17394;50.890;4.724;2023-11-19T13:20:11;13.20;99.90
30628;DHT22;17394;50.890;4.724;2023-11-19T13:23:00;13.20;99.90
30628;DHT22;17394;50.890;4.724;2023-11-19T13:25:37;13.20;99.90
30628;DHT22;17394;50.890;4.724;2023-11-19T13:34:57;13.40;99.90
30628;DHT22;17394;50.890;4.724;2023-11-19T13:37:25;13.40;99.90
30628;DHT22;17394;50.890;4.724;2023-11-19T13:39:53;13.30;99.90
30628;DHT22;17394;50.890;4.724;2023-11-19T13:42:19;13.40;99.90
30628;DHT22;17394;50.890;4.724;2023-11-19T13:44:47;13.40;99.90
30628;DHT22;17394;50.890;4.724;2023-11-19T13:47:13;13.40;99.90
30628;DHT22;17394;50.890;4.724;2023-11-19T13:49:39;13.40;99.90
30628;DHT22;17394;50.890;4.724;2023-11-19T13:52:06;13.40;99.90
30628;DHT22;17394;50.890;4.724;2023-11-19T13:54:32;13.30;99.90
30628;DHT22;17394;50.890;4.724;2023-11-19T13:56:58;13.30;99.90
30628;DHT22;17394;50.890;4.724;2023-11-19T13:59:24;13.30;99.90
30628;DHT22;17394;50.890;4.724;2023-11-19T14:01:50;13.20;99.90
30628;DHT22;17394;50.890;4.724;2023-11-19T14:04:16;13.20;99.90
30628;DHT22;17394;50.890;4.724;2023-11-19T14:06:45;13.10;99.90
30628;DHT22;17394;50.890;4.724;2023-11-19T14:09:11;13.00;99.90
30628;DHT22;17394;50.890;4.724;2023-11-19T14:11:38;12.90;99.90
30628;DHT22;17394;50.890;4.724;2023-11-19T14:14:06;12.90;99.90
30628;DHT22;17394;50.890;4.724;2023-11-19T14:16:32;12.80;99.90
30628;DHT22;17394;50.890;4.724;2023-11-19T14:19:00;12.80;99.90
30628;DHT22;17394;50.890;4.724;2023-11-19T14:21:26;12.80;99.90
30628;DHT22;17394;50.890;4.724;2023-11-19T14:23:53;12.80;99.90
30628;DHT22;17394;50.890;4.724;2023-11-19T14:26:38;12.80;99.90
30628;DHT22;17394;50.890;4.724;2023-11-19T14:29:04;12.80;99.90
30628;DHT22;17394;50.890;4.724;2023-11-19T14:31:30;12.80;99.90
30628;DHT22;17394;50.890;4.724;2023-11-19T14:33:56;12.80;99.90
30628;DHT22;17394;50.890;4.724;2023-11-19T14:36:23;12.80;99.90
30628;DHT22;17394;50.890;4.724;2023-11-19T14:38:49;12.80;99.90
30628;DHT22;17394;50.890;4.724;2023-11-19T14:41:16;12.80;99.90
30628;DHT22;17394;50.890;4.724;2023-11-19T14:43:42;12.80;99.90
30628;DHT22;17394;50.890;4.724;2023-11-19T14:46:12;12.80;99.90
30628;DHT22;17394;50.890;4.724;2023-11-19T14:48:59;12.70;99.90
30628;DHT22;17394;50.890;4.724;2023-11-19T14:51:26;12.70;99.90
30628;DHT22;17394;50.890;4.724;2023-11-19T14:53:52;12.70;99.90
30628;DHT22;17394;50.890;4.724;2023-11-19T14:56:18;12.60;99.90
30628;DHT22;17394;50.890;4.724;2023-11-19T14:58:45;12.60;99.90
30628;DHT22;17394;50.890;4.724;2023-11-19T15:01:12;12.60;99.90
30628;DHT22;17394;50.890;4.724;2023-11-19T15:03:39;12.60;99.90
30628;DHT22;17394;50.890;4.724;2023-11-19T15:06:06;12.60;99.90
30628;DHT22;17394;50.890;4.724;2023-11-19T15:08:33;12.60;99.90
30628;DHT22;17394;50.890;4.724;2023-11-19T15:10:59;12.60;99.90
30628;DHT22;17394;50.890;4.724;2023-11-19T15:13:27;12.60;99.90
30628;DHT22;17394;50.890;4.724;2023-11-19T15:15:54;12.60;99.90
30628;DHT22;17394;50.890;4.724;2023-11-19T15:18:21;12.60;99.90
30628;DHT22;17394;50.890;4.724;2023-11-19T15:20:46;12.60;99.90
30628;DHT22;17394;50.890;4.724;2023-11-19T15:23:14;12.70;99.90
30628;DHT22;17394;50.890;4.724;2023-11-19T15:25:41;12.60;99.90
30628;DHT22;17394;50.890;4.724;2023-11-19T15:28:08;12.60;99.90
30628;DHT22;17394;50.890;4.724;2023-11-19T15:30:34;12.60;99.90
30628;DHT22;17394;50.890;4.724;2023-11-19T15:33:00;12.60;99.90
30628;DHT22;17394;50.890;4.724;2023-11-19T15:35:26;12.50;99.90
30628;DHT22;17394;50.890;4.724;2023-11-19T15:37:55;12.50;99.90
30628;DHT22;17394;50.890;4.724;2023-11-19T15:40:22;12.50;99.90
30628;DHT22;17394;50.890;4.724;2023-11-19T15:42:48;12.50;99.90
30628;DHT22;17394;50.890;4.724;2023-11-19T15:45:14;12.50;99.90
30628;DHT22;17394;50.890;4.724;2023-11-19T15:47:42;12.50;99.90
30628;DHT22;17394;50.890;4.724;2023-11-19T15:50:08;12.50;99.90
30628;DHT22;17394;50.890;4.724;2023-11-19T15:52:35;12.50;99.90
30628;DHT22;17394;50.890;4.724;2023-11-19T15:55:01;12.50;99.90
30628;DHT22;17394;50.890;4.724;2023-11-19T15:57:27;12.50;99.90
30628;DHT22;17394;50.890;4.724;2023-11-19T15:59:53;12.60;99.90
30628;DHT22;17394;50.890;4.724;2023-11-19T16:02:19;12.60;99.90
30628;DHT22;17394;50.890;4.724;2023-11-19T16:04:45;12.60;99.90
30628;DHT22;17394;50.890;4.724;2023-11-19T16:07:14;12.60;99.90
30628;DHT22;17394;50.890;4.724;2023-11-19T16:09:40;12.60;99.90
30628;DHT22;17394;50.890;4.724;2023-11-19T16:12:08;12.90;99.90
30628;DHT22;17394;50.890;4.724;2023-11-19T16:14:34;12.70;99.90
30628;DHT22;17394;50.890;4.724;2023-11-19T16:17:01;12.70;99.90
30628;DHT22;17394;50.890;4.724;2023-11-19T16:19:27;12.80;99.90
30628;DHT22;17394;50.890;4.724;2023-11-19T16:21:53;12.80;99.90
30628;DHT22;17394;50.890;4.724;2023-11-19T16:24:19;12.70;99.90
30628;DHT22;17394;50.890;4.724;2023-11-19T16:27:01;12.70;99.90
30628;DHT22;17394;50.890;4.724;2023-11-19T16:29:28;12.70;99.90
30628;DHT22;17394;50.890;4.724;2023-11-19T16:31:54;12.60;99.90
30628;DHT22;17394;50.890;4.724;2023-11-19T16:34:20;12.60;99.90
30628;DHT22;17394;50.890;4.724;2023-11-19T16:36:48;12.60;99.90
30628;DHT22;17394;50.890;4.724;2023-11-19T16:39:15;12.60;99.90
30628;DHT22;17394;50.890;4.724;2023-11-19T16:41:42;12.50;99.90
30628;DHT22;17394;50.890;4.724;2023-11-19T16:44:08;12.50;99.90
30628;DHT22;17394;50.890;4.724;2023-11-19T16:46:35;12.50;99.90